Archival Weather

Chicago O'Hare International

Chicago, Illinois (KORD)

Report from: Wednesday, December 21, 2022 7:51 AM CST
Current time: Friday, June 21, 2024 1:48 AM CDT

Current weather – Weather history – Daily summaries
Weather forecast

Temperature-10.6°C (12.9°F)
Wind chill-16.3°C (2.6°F)
Dew point-15.0°C (5.0°F)
Winds 6 kts (3.1 m/s, 6.9 mph) North (360°)
Visibility10 mi. (16.1 km)
Clouds Ceiling: Overcast 1,800 ft. (549 m)
Altimeter30.45 in.Hg (1031 mB)
Relative humidity70 %
Density altitude-3,823 ft. (-1,165 m)
Sea-level pressure103.2 kPa (1032 mB, 30.48 in.Hg)
Remarks Automated weather observing station with precipitation discriminator
Flight conditions Marginal Visual Meteorological Conditions
Raw dataKORD 211351Z 36006KT 10SM OVC018 M11/M15 A3045 RMK AO2 SLP323 T11061150
An error has occurred. This application may no longer respond until reloaded. Reload 🗙